Hakuyuumaru — JD3219 — position and weather

sailwx.info

Track history (hours):
 
Tides and Currents Weather Stations Pressure Air Temp Water Temp Dewpoint Dewpoint Depression Visibility Wind Speed Wind Dir Waves Ship Positions

Hakuyuumaru

Last reported at 2016-Jun-27 02:33 UTC. Time now 2016-Jun-27 07:53 UTC.
Position N 34°55' E 140°01'.

Length 71 m; draft 4.5 m.

Type: Cargo ship. MMSI: 431002761.

Date/timePositionNaut miles runAvg speedWind from/ knotsBaromVisibWave heightAir tempDewpointWater temp
2016-Jun-27 02:33N 34°55' E 140°01'1110.7
2016-Jun-27 01:33N 35°01' E 140°12'2110.3
2016-Jun-26 23:33N 35°15' E 140°30'1410.9
2016-Jun-26 22:15N 35°26' E 140°41'710.5
2016-Jun-26 21:32N 35°31' E 140°47'1110.5
2016-Jun-26 20:27N 35°40' E 140°56'9 9.5
2016-Jun-26 19:33N 35°49' E 140°57'1110.2
2016-Jun-26 18:29N 35°60' E 140°56'1010.6
2016-Jun-26 17:33N 36°09' E 140°55'1310.5
2016-Jun-26 16:19N 36°22' E 140°54'9 9.9
2016-Jun-26 15:23N 36°31' E 140°55'  
Track history (hours):
 
Tides and Currents Weather Stations Pressure Air Temp Water Temp Dewpoint Dewpoint Depression Visibility Wind Speed Wind Dir Waves Ship Positions

Hakuyuumaru

Last reported at 2016-Jun-27 02:33 UTC. Time now 2016-Jun-27 07:53 UTC.
Position N 34°55' E 140°01'.

Length 71 m; draft 4.5 m.

Type: Cargo ship. MMSI: 431002761.

Date/timePositionNaut miles runAvg speedWind from/ knotsBaromVisibWave heightAir tempDewpointWater temp
2016-Jun-27 02:33N 34°55' E 140°01'1110.7
2016-Jun-27 01:33N 35°01' E 140°12'2110.3
2016-Jun-26 23:33N 35°15' E 140°30'1410.9
2016-Jun-26 22:15N 35°26' E 140°41'710.5
2016-Jun-26 21:32N 35°31' E 140°47'1110.5
2016-Jun-26 20:27N 35°40' E 140°56'9 9.5
2016-Jun-26 19:33N 35°49' E 140°57'1110.2
2016-Jun-26 18:29N 35°60' E 140°56'1010.6
2016-Jun-26 17:33N 36°09' E 140°55'1310.5
2016-Jun-26 16:19N 36°22' E 140°54'9 9.9
2016-Jun-26 15:23N 36°31' E 140°55'  

Dump ship's entire track history